Time;durP1;ratioP1;P1;durP2;ratioP2;P2;SDS_P1;SDS_P2;PMS_P1;PMS_P2;Temp;Humidity;BMP_temperature;BMP_pressure;BME280_temperature;BME280_humidity;BME280_pressure;Samples;Min_cycle;Max_cycle;Signal;HPM_P1;HPM_P2
2023/07/14 00:00:34;;;;;;;4.57;2.72;;;;;;;;;;6214052;23;20458;-77
2023/07/14 00:03:02;;;;;;;3.95;2.50;;;;;;;;;;6220736;23;20017;-77
2023/07/14 00:05:32;;;;;;;3.60;2.63;;;;;;;;;;6238491;23;20068;-77
2023/07/14 00:07:59;;;;;;;4.50;2.80;;;;;;;;;;6219532;23;20023;-77
2023/07/14 00:10:30;;;;;;;5.30;2.58;;;;;;;;;;6214568;23;20023;-77
2023/07/14 00:12:58;;;;;;;4.03;2.63;;;;;;;;;;6213734;23;20088;-77
2023/07/14 00:15:28;;;;;;;4.53;2.70;;;;;;;;;;6213723;23;20020;-77
2023/07/14 00:17:56;;;;;;;3.72;2.55;;;;;;;;;;6213508;23;20042;-77
2023/07/14 00:20:26;;;;;;;3.70;2.20;;;;;;;;;;6213541;23;20454;-77
2023/07/14 00:22:53;;;;;;;3.63;2.60;;;;;;;;;;6213747;23;20098;-77
2023/07/14 00:25:22;;;;;;;3.55;2.47;;;;;;;;;;6214228;23;20023;-77
2023/07/14 00:27:49;;;;;;;4.35;2.35;;;;;;;;;;6213812;23;20482;-77
2023/07/14 00:30:18;;;;;;;4.95;2.60;;;;;;;;;;6213778;23;20017;-77
2023/07/14 00:32:46;;;;;;;4.22;2.20;;;;;;;;;;6214434;23;20029;-77
2023/07/14 00:35:21;;;;;;;4.25;2.50;;;;;;;;;;6214230;23;20099;-77
2023/07/14 00:37:48;;;;;;;5.20;2.67;;;;;;;;;;6214602;23;20111;-77
2023/07/14 00:40:16;;;;;;;5.20;2.88;;;;;;;;;;6214267;23;20078;-78
2023/07/14 00:42:43;;;;;;;4.15;2.50;;;;;;;;;;6213977;23;20095;-78
2023/07/14 00:45:12;;;;;;;4.32;2.60;;;;;;;;;;6214480;23;20048;-78
2023/07/14 00:47:38;;;;;;;4.68;2.80;;;;;;;;;;6215190;23;20021;-77
2023/07/14 00:50:16;;;;;;;3.83;2.58;;;;;;;;;;6215670;23;20021;-78
2023/07/14 00:52:46;;;;;;;5.63;2.72;;;;;;;;;;6215213;23;20016;-78
2023/07/14 00:55:30;;;;;;;3.72;2.25;;;;;;;;;;6215774;23;20048;-78
2023/07/14 00:57:57;;;;;;;4.07;2.70;;;;;;;;;;6215267;23;20052;-77
2023/07/14 01:00:27;;;;;;;4.68;2.78;;;;;;;;;;6215498;23;20024;-78
2023/07/14 01:02:53;;;;;;;4.43;2.70;;;;;;;;;;6214913;23;20528;-77
2023/07/14 01:05:21;;;;;;;5.53;3.20;;;;;;;;;;6214284;23;20458;-78
2023/07/14 01:07:48;;;;;;;5.20;2.95;;;;;;;;;;6216026;23;20028;-78
2023/07/14 01:10:17;;;;;;;5.10;3.13;;;;;;;;;;6216247;23;20031;-77
2023/07/14 01:12:48;;;;;;;4.38;2.72;;;;;;;;;;6216243;23;20470;-78
2023/07/14 01:15:15;;;;;;;4.75;2.75;;;;;;;;;;6216394;23;20063;-77
2023/07/14 01:17:43;;;;;;;4.03;2.70;;;;;;;;;;6216994;23;20021;-78
2023/07/14 01:20:11;;;;;;;4.32;2.80;;;;;;;;;;6217195;23;20017;-77
2023/07/14 01:22:47;;;;;;;4.93;2.75;;;;;;;;;;6216757;23;20056;-77
2023/07/14 01:25:22;;;;;;;4.45;2.63;;;;;;;;;;6217576;23;20349;-77
2023/07/14 01:27:50;;;;;;;5.72;3.85;;;;;;;;;;6217815;23;20021;-77
2023/07/14 01:30:19;;;;;;;5.30;3.60;;;;;;;;;;6217033;23;20328;-78
2023/07/14 01:32:48;;;;;;;7.97;4.90;;;;;;;;;;6217560;23;20035;-77
2023/07/14 01:35:17;;;;;;;6.13;4.18;;;;;;;;;;6217204;23;20028;-78
2023/07/14 01:37:44;;;;;;;7.05;5.65;;;;;;;;;;6217143;23;20024;-78
2023/07/14 01:40:15;;;;;;;7.95;5.90;;;;;;;;;;6217044;23;20416;-78
2023/07/14 01:42:44;;;;;;;7.68;6.10;;;;;;;;;;6216840;23;20386;-78
2023/07/14 01:48:37;;;;;;;6.40;4.80;;;;;;;;;;6213423;23;20461;-78
2023/07/14 01:51:10;;;;;;;6.47;4.40;;;;;;;;;;6217826;23;20024;-77
2023/07/14 01:53:42;;;;;;;6.38;4.35;;;;;;;;;;6217319;23;20021;-77
2023/07/14 01:56:14;;;;;;;7.32;4.70;;;;;;;;;;6216865;23;20072;-77
2023/07/14 01:58:51;;;;;;;8.15;5.03;;;;;;;;;;6217165;23;20021;-77
2023/07/14 02:01:21;;;;;;;9.23;5.07;;;;;;;;;;6216120;23;20020;-77
2023/07/14 02:03:52;;;;;;;5.40;4.10;;;;;;;;;;6214919;23;20016;-77
2023/07/14 02:06:19;;;;;;;6.10;3.78;;;;;;;;;;6215234;23;20017;-77
2023/07/14 02:08:46;;;;;;;5.72;3.83;;;;;;;;;;6215490;23;20021;-77
2023/07/14 02:11:17;;;;;;;4.65;3.40;;;;;;;;;;6215201;23;20024;-77
2023/07/14 02:13:43;;;;;;;5.40;3.70;;;;;;;;;;6214506;23;20091;-77
2023/07/14 02:16:14;;;;;;;5.78;4.13;;;;;;;;;;6214480;23;20021;-77
2023/07/14 02:18:42;;;;;;;4.90;3.60;;;;;;;;;;6214047;23;20055;-77
2023/07/14 02:21:11;;;;;;;5.18;3.97;;;;;;;;;;6215392;23;20074;-77
2023/07/14 02:23:40;;;;;;;6.20;3.97;;;;;;;;;;6218266;23;20016;-77
2023/07/14 02:26:11;;;;;;;7.57;4.38;;;;;;;;;;6216828;23;20035;-77
2023/07/14 02:28:37;;;;;;;5.88;3.97;;;;;;;;;;6215136;23;20048;-77
2023/07/14 02:31:14;;;;;;;4.70;3.35;;;;;;;;;;6215266;23;20048;-77
2023/07/14 02:33:43;;;;;;;4.88;3.42;;;;;;;;;;6214634;23;20482;-78
2023/07/14 02:36:18;;;;;;;6.50;3.45;;;;;;;;;;6215130;23;20023;-77
2023/07/14 02:38:44;;;;;;;5.57;3.33;;;;;;;;;;6215771;23;20030;-77
2023/07/14 02:41:15;;;;;;;4.25;2.63;;;;;;;;;;6215986;23;20017;-77
2023/07/14 02:43:42;;;;;;;3.92;2.60;;;;;;;;;;6215229;23;20021;-77
2023/07/14 02:46:13;;;;;;;4.32;2.80;;;;;;;;;;6215348;23;20348;-77
2023/07/14 02:48:42;;;;;;;4.40;3.00;;;;;;;;;;6215268;23;20039;-77
2023/07/14 02:51:09;;;;;;;4.85;2.72;;;;;;;;;;6215475;23;20017;-78
2023/07/14 02:53:37;;;;;;;4.70;2.67;;;;;;;;;;6215046;23;20028;-78
2023/07/14 02:56:04;;;;;;;4.38;2.97;;;;;;;;;;6215027;23;20404;-77
2023/07/14 02:58:31;;;;;;;5.28;2.58;;;;;;;;;;6214899;23;20021;-79
2023/07/14 03:00:57;;;;;;;5.18;2.72;;;;;;;;;;6219573;23;20349;-77
2023/07/14 03:03:24;;;;;;;3.88;2.83;;;;;;;;;;6241133;23;20064;-76
2023/07/14 03:05:51;;;;;;;4.78;2.63;;;;;;;;;;6226215;23;20021;-76
2023/07/14 03:08:18;;;;;;;5.82;2.58;;;;;;;;;;6216368;23;20091;-76
2023/07/14 03:10:48;;;;;;;3.92;2.53;;;;;;;;;;6215516;23;20020;-77
2023/07/14 03:13:16;;;;;;;4.75;2.60;;;;;;;;;;6216048;23;20094;-77
2023/07/14 03:15:44;;;;;;;4.28;2.72;;;;;;;;;;6215131;23;20063;-77
2023/07/14 03:18:11;;;;;;;5.88;2.90;;;;;;;;;;6215366;23;20016;-77
2023/07/14 03:20:38;;;;;;;4.03;2.95;;;;;;;;;;6216435;23;20024;-78
2023/07/14 03:23:04;;;;;;;4.15;2.88;;;;;;;;;;6216453;23;20016;-77
2023/07/14 03:25:33;;;;;;;4.38;2.85;;;;;;;;;;6216624;23;20017;-77
2023/07/14 03:28:01;;;;;;;4.38;2.65;;;;;;;;;;6217554;23;20461;-78
2023/07/14 03:30:28;;;;;;;5.18;2.90;;;;;;;;;;6217753;23;20071;-77
2023/07/14 03:32:54;;;;;;;4.63;2.55;;;;;;;;;;6217388;23;20027;-77
2023/07/14 03:35:21;;;;;;;5.15;2.90;;;;;;;;;;6218713;23;20021;-78
2023/07/14 03:37:48;;;;;;;5.28;2.97;;;;;;;;;;6220530;23;20050;-77
2023/07/14 03:40:14;;;;;;;4.22;2.42;;;;;;;;;;6221081;23;20023;-77
2023/07/14 03:42:43;;;;;;;3.88;2.60;;;;;;;;;;6215586;23;20020;-78
2023/07/14 03:45:11;;;;;;;4.47;2.90;;;;;;;;;;6215525;23;20108;-77
2023/07/14 03:47:39;;;;;;;3.65;2.40;;;;;;;;;;6216268;23;20021;-76
2023/07/14 03:50:07;;;;;;;4.38;2.75;;;;;;;;;;6215958;23;20100;-77
2023/07/14 03:52:34;;;;;;;4.20;2.60;;;;;;;;;;6215450;23;20030;-77
2023/07/14 03:55:00;;;;;;;5.03;3.00;;;;;;;;;;6214119;23;20021;-77
2023/07/14 03:57:27;;;;;;;4.45;2.40;;;;;;;;;;6214406;23;20024;-77
2023/07/14 03:59:53;;;;;;;5.03;2.95;;;;;;;;;;6214850;23;20017;-77
2023/07/14 04:02:21;;;;;;;4.28;2.60;;;;;;;;;;6214578;23;20048;-78
2023/07/14 04:04:48;;;;;;;4.18;2.90;;;;;;;;;;6213438;23;20020;-77
2023/07/14 04:07:14;;;;;;;3.78;2.40;;;;;;;;;;6213988;23;20027;-76
2023/07/14 04:09:41;;;;;;;5.70;2.67;;;;;;;;;;6214284;23;20016;-78
2023/07/14 04:12:08;;;;;;;4.65;2.67;;;;;;;;;;6214132;23;20038;-77
2023/07/14 04:14:35;;;;;;;4.30;2.58;;;;;;;;;;6213556;23;20100;-78
2023/07/14 04:17:03;;;;;;;4.72;2.80;;;;;;;;;;6213706;23;20021;-78
2023/07/14 04:19:30;;;;;;;4.88;2.80;;;;;;;;;;6214018;23;20044;-77
2023/07/14 04:21:58;;;;;;;3.90;2.70;;;;;;;;;;6214418;23;20020;-77
2023/07/14 04:24:24;;;;;;;4.18;2.67;;;;;;;;;;6214478;23;20024;-77
2023/07/14 04:26:51;;;;;;;5.90;2.60;;;;;;;;;;6214098;23;20342;-77
2023/07/14 04:29:17;;;;;;;5.10;2.63;;;;;;;;;;6214231;23;20362;-77
2023/07/14 04:31:44;;;;;;;5.82;2.83;;;;;;;;;;6214787;23;20358;-77
2023/07/14 04:34:11;;;;;;;4.03;2.45;;;;;;;;;;6215118;23;20429;-77
2023/07/14 04:36:40;;;;;;;4.00;2.30;;;;;;;;;;6215658;23;20024;-77
2023/07/14 04:39:08;;;;;;;5.95;2.75;;;;;;;;;;6216069;23;20021;-78
2023/07/14 04:41:36;;;;;;;4.05;2.58;;;;;;;;;;6215182;23;20023;-77
2023/07/14 04:44:06;;;;;;;5.05;2.40;;;;;;;;;;6216564;23;20020;-77
2023/07/14 04:46:32;;;;;;;;;;;;;;;;;;6217571;23;20016;-77
2023/07/14 04:48:59;;;;;;;4.78;2.25;;;;;;;;;;6216313;23;20238;-77
2023/07/14 04:51:26;;;;;;;4.05;2.58;;;;;;;;;;6216219;23;20017;-77
2023/07/14 04:53:54;;;;;;;3.92;2.42;;;;;;;;;;6216212;23;20031;-77
2023/07/14 04:56:22;;;;;;;4.25;2.70;;;;;;;;;;6215424;23;20035;-77
2023/07/14 04:58:48;;;;;;;5.68;2.65;;;;;;;;;;6216113;23;20027;-77
2023/07/14 05:01:15;;;;;;;4.95;3.03;;;;;;;;;;6216242;23;20017;-78
2023/07/14 05:03:43;;;;;;;4.75;2.38;;;;;;;;;;6215847;23;20031;-77
2023/07/14 05:06:10;;;;;;;4.45;2.55;;;;;;;;;;6216553;23;20047;-77
2023/07/14 05:08:37;;;;;;;5.82;2.50;;;;;;;;;;6215866;23;20021;-77
2023/07/14 05:11:05;;;;;;;4.47;2.60;;;;;;;;;;6216368;23;20017;-77
2023/07/14 05:13:31;;;;;;;3.75;2.30;;;;;;;;;;6218299;23;20091;-77
2023/07/14 05:15:58;;;;;;;5.22;2.70;;;;;;;;;;6220935;23;20107;-77
2023/07/14 05:18:25;;;;;;;6.82;2.80;;;;;;;;;;6220914;23;20023;-77
2023/07/14 05:20:52;;;;;;;4.20;2.55;;;;;;;;;;6217729;23;20021;-78
2023/07/14 05:23:19;;;;;;;4.28;2.72;;;;;;;;;;6217162;23;20020;-77
2023/07/14 05:25:46;;;;;;;5.10;2.83;;;;;;;;;;6217753;23;20047;-78
2023/07/14 05:28:14;;;;;;;4.95;2.40;;;;;;;;;;6216275;23;20095;-77
2023/07/14 05:30:40;;;;;;;5.60;2.40;;;;;;;;;;6216644;23;20023;-77
2023/07/14 05:33:09;;;;;;;3.67;2.20;;;;;;;;;;6216304;23;20021;-77
2023/07/14 05:35:36;;;;;;;4.25;2.30;;;;;;;;;;6216908;23;20025;-77
2023/07/14 05:38:02;;;;;;;5.45;2.70;;;;;;;;;;6217070;23;20023;-77
2023/07/14 05:40:29;;;;;;;3.60;2.33;;;;;;;;;;6215177;23;20016;-77
2023/07/14 05:42:55;;;;;;;4.18;2.22;;;;;;;;;;6216378;23;20027;-77
2023/07/14 05:45:23;;;;;;;4.07;2.40;;;;;;;;;;6216371;23;20025;-78
2023/07/14 05:47:50;;;;;;;4.47;2.45;;;;;;;;;;6216031;23;20024;-77
2023/07/14 05:50:17;;;;;;;4.25;2.50;;;;;;;;;;6217381;23;20017;-78
2023/07/14 05:52:44;;;;;;;4.32;2.38;;;;;;;;;;6219662;23;20342;-79
2023/07/14 05:55:12;;;;;;;4.40;2.30;;;;;;;;;;6219702;23;20368;-77
2023/07/14 05:57:38;;;;;;;3.55;2.20;;;;;;;;;;6221598;23;20034;-79
2023/07/14 06:00:11;;;;;;;5.00;2.15;;;;;;;;;;6232223;23;20004;-80
2023/07/14 06:02:40;;;;;;;4.00;2.20;;;;;;;;;;6241344;23;20024;-79
2023/07/14 06:05:08;;;;;;;4.22;2.33;;;;;;;;;;6222594;23;20095;-79
2023/07/14 06:07:34;;;;;;;4.85;2.20;;;;;;;;;;6222183;23;20027;-80
2023/07/14 06:10:01;;;;;;;3.90;2.17;;;;;;;;;;6223093;23;20100;-79
2023/07/14 06:12:27;;;;;;;3.38;2.00;;;;;;;;;;6223248;23;20021;-80
2023/07/14 06:14:54;;;;;;;4.35;2.35;;;;;;;;;;6223579;23;20024;-80
2023/07/14 06:17:21;;;;;;;3.70;2.33;;;;;;;;;;6229415;23;20016;-79
2023/07/14 06:19:49;;;;;;;4.57;2.30;;;;;;;;;;6228636;23;20045;-79
2023/07/14 06:22:16;;;;;;;6.00;2.42;;;;;;;;;;6224424;23;20331;-79
2023/07/14 06:24:42;;;;;;;3.90;2.40;;;;;;;;;;6224317;23;20044;-80
2023/07/14 06:27:09;;;;;;;5.40;2.72;;;;;;;;;;6224120;23;20043;-79
2023/07/14 06:29:36;;;;;;;3.60;2.17;;;;;;;;;;6223933;23;20031;-79
2023/07/14 06:32:02;;;;;;;3.97;2.10;;;;;;;;;;6224322;23;20068;-79
2023/07/14 06:34:29;;;;;;;6.57;2.55;;;;;;;;;;6224160;23;20493;-79
2023/07/14 06:36:57;;;;;;;3.78;2.28;;;;;;;;;;6226713;23;20104;-78
2023/07/14 06:39:24;;;;;;;4.22;2.40;;;;;;;;;;6227572;23;20532;-79
2023/07/14 06:41:50;;;;;;;4.20;2.20;;;;;;;;;;6224925;23;20052;-79
2023/07/14 06:44:17;;;;;;;4.07;2.35;;;;;;;;;;6225981;23;20410;-78
2023/07/14 06:46:44;;;;;;;4.18;2.30;;;;;;;;;;6226727;23;20077;-79
2023/07/14 06:49:11;;;;;;;3.83;2.33;;;;;;;;;;6225583;23;20077;-79
2023/07/14 06:51:37;;;;;;;4.13;2.58;;;;;;;;;;6221698;23;20020;-78
2023/07/14 06:54:05;;;;;;;4.20;2.13;;;;;;;;;;6223664;23;20100;-78
2023/07/14 06:56:32;;;;;;;3.53;1.90;;;;;;;;;;6223051;23;20104;-78
2023/07/14 06:58:59;;;;;;;3.00;2.15;;;;;;;;;;6219464;23;20056;-78
2023/07/14 07:01:27;;;;;;;3.63;2.10;;;;;;;;;;6220789;23;20051;-78
2023/07/14 07:03:53;;;;;;;5.40;3.28;;;;;;;;;;6217546;23;20091;-78
2023/07/14 07:06:20;;;;;;;4.75;2.90;;;;;;;;;;6218225;23;20031;-78
2023/07/14 07:08:46;;;;;;;3.70;2.20;;;;;;;;;;6213796;23;20023;-78
2023/07/14 07:11:14;;;;;;;4.85;2.47;;;;;;;;;;6213337;23;20092;-78
2023/07/14 07:13:41;;;;;;;5.47;2.50;;;;;;;;;;6210815;23;20020;-78
2023/07/14 07:16:08;;;;;;;3.78;2.10;;;;;;;;;;6212171;23;20020;-78
2023/07/14 07:18:34;;;;;;;3.83;2.00;;;;;;;;;;6212052;23;20016;-78
2023/07/14 07:21:02;;;;;;;3.95;2.10;;;;;;;;;;6212167;23;20347;-78
2023/07/14 07:23:28;;;;;;;3.35;2.20;;;;;;;;;;6211755;23;20027;-78
2023/07/14 07:25:56;;;;;;;5.25;2.30;;;;;;;;;;6211077;23;20469;-78
2023/07/14 07:28:24;;;;;;;4.60;1.90;;;;;;;;;;6212087;23;20024;-78
2023/07/14 07:30:51;;;;;;;4.22;2.40;;;;;;;;;;6212739;23;20080;-78
2023/07/14 07:33:18;;;;;;;3.58;2.15;;;;;;;;;;6212124;23;20683;-78
2023/07/14 07:35:44;;;;;;;4.22;2.10;;;;;;;;;;6211798;23;20104;-78
2023/07/14 07:38:12;;;;;;;4.85;1.95;;;;;;;;;;6211739;23;20099;-80
2023/07/14 07:40:40;;;;;;;4.20;2.13;;;;;;;;;;6211108;23;20461;-78
2023/07/14 07:43:06;;;;;;;4.07;2.00;;;;;;;;;;6211248;23;20024;-79
2023/07/14 07:45:34;;;;;;;3.67;1.80;;;;;;;;;;6211062;23;20557;-79
2023/07/14 07:48:01;;;;;;;3.33;1.90;;;;;;;;;;6211189;23;20470;-79
2023/07/14 07:50:28;;;;;;;4.10;2.17;;;;;;;;;;6211987;23;20543;-78
2023/07/14 07:52:55;;;;;;;3.70;2.40;;;;;;;;;;6213118;23;20044;-78
2023/07/14 07:55:22;;;;;;;4.10;1.75;;;;;;;;;;6213945;23;20466;-78
2023/07/14 07:57:48;;;;;;;4.10;2.30;;;;;;;;;;6229613;23;20072;-78
2023/07/14 08:00:16;;;;;;;2.78;1.80;;;;;;;;;;6217569;23;20103;-79
2023/07/14 08:02:45;;;;;;;3.63;2.20;;;;;;;;;;6219717;23;20024;-79
2023/07/14 08:05:13;;;;;;;5.35;2.10;;;;;;;;;;6220227;23;20021;-79
2023/07/14 08:07:40;;;;;;;5.32;2.15;;;;;;;;;;6221382;23;20023;-79
2023/07/14 08:10:07;;;;;;;4.15;2.20;;;;;;;;;;6221611;23;20068;-79
2023/07/14 08:12:34;;;;;;;4.47;2.22;;;;;;;;;;6220953;23;20076;-79
2023/07/14 08:15:00;;;;;;;3.45;2.17;;;;;;;;;;6220305;23;20024;-79
2023/07/14 08:17:29;;;;;;;6.57;2.42;;;;;;;;;;6219872;23;20366;-79
2023/07/14 08:19:57;;;;;;;3.75;2.47;;;;;;;;;;6216960;23;20020;-79
2023/07/14 08:22:25;;;;;;;5.38;2.35;;;;;;;;;;6216017;23;20055;-78
2023/07/14 08:24:52;;;;;;;4.43;2.40;;;;;;;;;;6219023;23;20023;-79
2023/07/14 08:27:19;;;;;;;4.30;2.42;;;;;;;;;;6220379;23;20027;-79
2023/07/14 08:29:46;;;;;;;5.88;2.58;;;;;;;;;;6221354;23;20017;-79
2023/07/14 08:32:15;;;;;;;4.88;2.70;;;;;;;;;;6217888;23;20514;-78
2023/07/14 08:34:42;;;;;;;4.67;2.50;;;;;;;;;;6219558;23;20024;-79
2023/07/14 08:37:10;;;;;;;5.60;3.00;;;;;;;;;;6219031;23;20242;-78
2023/07/14 08:39:36;;;;;;;4.72;2.67;;;;;;;;;;6218233;23;20016;-78
2023/07/14 08:42:15;;;;;;;3.92;2.70;;;;;;;;;;6219280;23;20032;-78
2023/07/14 08:44:54;;;;;;;9.20;3.17;;;;;;;;;;6226014;23;20076;-78
2023/07/14 08:47:24;;;;;;;4.93;2.90;;;;;;;;;;6231552;23;20027;-79
2023/07/14 08:49:54;;;;;;;5.50;2.45;;;;;;;;;;6215568;23;20487;-79
2023/07/14 08:52:28;;;;;;;4.25;2.90;;;;;;;;;;6217047;23;20025;-83
2023/07/14 08:55:00;;;;;;;4.80;3.40;;;;;;;;;;6219560;23;20095;-81
2023/07/14 08:57:28;;;;;;;11.98;6.95;;;;;;;;;;6220279;23;20024;-81
2023/07/14 08:59:58;;;;;;;27.45;19.42;;;;;;;;;;6220438;23;20091;-82
2023/07/14 09:02:33;;;;;;;12.18;7.88;;;;;;;;;;6215219;23;20016;-79
2023/07/14 09:05:03;;;;;;;60.22;41.45;;;;;;;;;;6215125;23;20434;-82
2023/07/14 09:07:32;;;;;;;18.17;11.60;;;;;;;;;;6218104;23;20108;-83
2023/07/14 09:09:59;;;;;;;7.78;4.30;;;;;;;;;;6220635;23;20091;-85
2023/07/14 09:12:34;;;;;;;5.95;3.55;;;;;;;;;;6222103;23;20474;-85
2023/07/14 09:15:03;;;;;;;6.68;4.07;;;;;;;;;;6221526;23;20020;-79
2023/07/14 09:17:45;;;;;;;7.50;3.88;;;;;;;;;;6221661;23;20051;-80
2023/07/14 09:20:32;;;;;;;5.78;2.70;;;;;;;;;;6222537;23;20055;-80
2023/07/14 09:23:09;;;;;;;5.30;2.38;;;;;;;;;;6219400;23;20068;-79
2023/07/14 09:25:43;;;;;;;5.43;2.45;;;;;;;;;;6217017;23;20023;-80
2023/07/14 09:28:15;;;;;;;5.72;2.25;;;;;;;;;;6215731;23;20016;-79
2023/07/14 09:30:45;;;;;;;3.47;2.30;;;;;;;;;;6219365;23;20028;-81
2023/07/14 09:33:15;;;;;;;3.38;1.90;;;;;;;;;;6219150;23;20021;-81
2023/07/14 09:35:44;;;;;;;3.70;2.13;;;;;;;;;;6219006;23;20547;-81
2023/07/14 09:38:21;;;;;;;4.30;2.38;;;;;;;;;;6216180;23;20413;-83
2023/07/14 09:40:52;;;;;;;4.40;2.50;;;;;;;;;;6216937;23;20028;-79
2023/07/14 09:43:19;;;;;;;4.70;2.28;;;;;;;;;;6218155;23;20024;-80
2023/07/14 09:45:46;;;;;;;4.93;2.20;;;;;;;;;;6224506;23;20032;-79
2023/07/14 09:48:16;;;;;;;3.50;2.10;;;;;;;;;;6220305;23;20091;-79
2023/07/14 09:50:53;;;;;;;4.45;2.10;;;;;;;;;;6220525;23;20068;-79
2023/07/14 09:53:21;;;;;;;3.40;2.03;;;;;;;;;;6220405;23;20017;-79
2023/07/14 09:55:52;;;;;;;4.07;2.30;;;;;;;;;;6218451;23;20055;-79
2023/07/14 09:58:25;;;;;;;3.97;2.20;;;;;;;;;;6219494;23;20063;-79
2023/07/14 10:00:54;;;;;;;4.38;2.35;;;;;;;;;;6219358;23;20083;-77
2023/07/14 10:03:21;;;;;;;3.97;2.23;;;;;;;;;;6213892;23;20020;-77
2023/07/14 10:05:53;;;;;;;3.25;1.80;;;;;;;;;;6213726;23;20024;-78
2023/07/14 10:08:27;;;;;;;6.38;2.20;;;;;;;;;;6214989;23;20016;-78
2023/07/14 10:10:56;;;;;;;3.50;2.03;;;;;;;;;;6216861;23;20071;-78
2023/07/14 10:13:26;;;;;;;3.58;2.05;;;;;;;;;;6213547;23;20021;-77
2023/07/14 10:15:57;;;;;;;4.68;2.30;;;;;;;;;;6212927;23;20361;-77
2023/07/14 10:18:24;;;;;;;3.63;1.95;;;;;;;;;;6213757;23;20508;-78
2023/07/14 10:21:03;;;;;;;4.13;2.17;;;;;;;;;;6218138;23;20021;-80
2023/07/14 10:23:32;;;;;;;3.27;2.20;;;;;;;;;;6221020;23;20043;-81
2023/07/14 10:26:00;;;;;;;2.90;1.70;;;;;;;;;;6216028;23;20023;-78
2023/07/14 10:28:29;;;;;;;6.88;2.28;;;;;;;;;;6216589;23;20020;-81
2023/07/14 10:31:03;;;;;;;3.05;1.77;;;;;;;;;;6213589;23;20020;-79
2023/07/14 10:33:40;;;;;;;2.78;1.63;;;;;;;;;;6211828;23;20528;-78
2023/07/14 10:36:11;;;;;;;2.80;1.52;;;;;;;;;;6212276;23;20016;-78
2023/07/14 10:38:43;;;;;;;3.88;1.65;;;;;;;;;;6212619;23;20024;-78
2023/07/14 10:41:15;;;;;;;3.92;1.77;;;;;;;;;;6212160;23;20017;-77
2023/07/14 10:43:46;;;;;;;3.45;2.10;;;;;;;;;;6217240;23;20047;-79
2023/07/14 10:46:18;;;;;;;3.58;1.88;;;;;;;;;;6214292;23;20079;-78
2023/07/14 10:48:48;;;;;;;3.65;1.80;;;;;;;;;;6213302;23;20361;-77
2023/07/14 10:51:24;;;;;;;;;;;;;;;;;;6220371;23;20052;-77
2023/07/14 10:53:58;;;;;;;2.85;1.70;;;;;;;;;;6218003;23;19916;-78
2023/07/14 10:56:29;;;;;;;3.67;2.00;;;;;;;;;;6213415;23;20031;-79
2023/07/14 10:59:00;;;;;;;2.97;1.80;;;;;;;;;;6212937;23;20017;-77
2023/07/14 11:01:33;;;;;;;4.90;1.98;;;;;;;;;;6212790;23;20075;-78
2023/07/14 11:04:06;;;;;;;3.50;1.80;;;;;;;;;;6213227;23;20017;-77
2023/07/14 11:06:35;;;;;;;4.28;1.90;;;;;;;;;;6212999;23;20055;-77
2023/07/14 11:09:05;;;;;;;2.85;1.70;;;;;;;;;;6214857;23;20517;-77
2023/07/14 11:11:40;;;;;;;3.65;1.90;;;;;;;;;;6211766;23;20060;-77
2023/07/14 11:14:19;;;;;;;3.10;1.70;;;;;;;;;;6214840;23;20415;-77
2023/07/14 11:16:56;;;;;;;3.47;1.77;;;;;;;;;;6215027;23;20075;-79
2023/07/14 11:19:32;;;;;;;3.90;2.13;;;;;;;;;;6186914;23;20021;-77
2023/07/14 11:22:05;;;;;;;3.70;2.00;;;;;;;;;;6192160;23;20085;-78
2023/07/14 11:24:40;;;;;;;3.05;1.92;;;;;;;;;;6190492;23;20025;-77
2023/07/14 11:27:23;;;;;;;4.13;2.17;;;;;;;;;;6184567;23;20052;-77
2023/07/14 11:29:54;;;;;;;3.60;1.90;;;;;;;;;;6184668;23;20039;-77
2023/07/14 11:32:36;;;;;;;3.05;1.70;;;;;;;;;;6182799;23;20021;-77
2023/07/14 11:35:10;;;;;;;6.70;4.22;;;;;;;;;;6181950;23;20029;-77
2023/07/14 11:37:47;;;;;;;4.22;2.30;;;;;;;;;;6183446;23;20025;-77
2023/07/14 11:40:21;;;;;;;5.63;3.20;;;;;;;;;;6187137;23;20048;-78
2023/07/14 11:42:53;;;;;;;6.38;3.80;;;;;;;;;;6186213;23;20036;-79
2023/07/14 11:45:22;;;;;;;4.25;2.42;;;;;;;;;;6185594;23;20104;-81
2023/07/14 11:47:50;;;;;;;3.95;2.60;;;;;;;;;;6187043;23;20013;-80
2023/07/14 11:50:29;;;;;;;3.17;2.10;;;;;;;;;;6196168;23;20032;-78
2023/07/14 11:53:01;;;;;;;3.60;1.92;;;;;;;;;;6187666;23;20021;-78
2023/07/14 11:55:31;;;;;;;5.63;2.65;;;;;;;;;;6184948;23;20021;-77
2023/07/14 11:58:18;;;;;;;3.17;1.92;;;;;;;;;;6183518;23;20028;-79
2023/07/14 12:00:48;;;;;;;3.42;1.88;;;;;;;;;;6186484;23;20040;-79
2023/07/14 12:03:32;;;;;;;;;;;;;;;;;;6189274;23;20092;-77
2023/07/14 12:06:21;;;;;;;3.58;2.13;;;;;;;;;;6186188;23;19948;-80
2023/07/14 12:09:01;;;;;;;3.35;2.20;;;;;;;;;;6175672;23;20266;-80
2023/07/14 12:11:31;;;;;;;;;;;;;;;;;;6191786;23;20020;-79
2023/07/14 12:13:58;;;;;;;4.68;2.17;;;;;;;;;;6192305;23;19916;-80
2023/07/14 12:16:28;;;;;;;3.22;1.88;;;;;;;;;;6189436;23;20016;-80
2023/07/14 12:19:22;;;;;;;4.78;2.08;;;;;;;;;;6212374;23;20020;-80
2023/07/14 12:22:00;;;;;;;3.38;1.70;;;;;;;;;;6202002;23;20020;-80
2023/07/14 12:24:30;;;;;;;3.38;2.00;;;;;;;;;;6216204;23;20536;-80
2023/07/14 12:27:10;;;;;;;4.45;1.80;;;;;;;;;;6218619;23;20063;-83
2023/07/14 12:29:38;;;;;;;3.63;1.92;;;;;;;;;;6218561;23;20074;-78
2023/07/14 12:32:17;;;;;;;3.92;1.80;;;;;;;;;;6220467;23;20024;-79
2023/07/14 12:34:47;;;;;;;2.72;1.80;;;;;;;;;;6219582;23;20442;-78
2023/07/14 12:37:17;;;;;;;3.83;1.77;;;;;;;;;;6220669;23;20024;-79
2023/07/14 12:39:47;;;;;;;5.22;1.70;;;;;;;;;;6216282;23;20024;-78
2023/07/14 12:42:16;;;;;;;3.00;1.70;;;;;;;;;;6217429;23;20016;-79
2023/07/14 12:44:44;;;;;;;4.22;2.15;;;;;;;;;;6217367;23;20032;-79
2023/07/14 12:47:15;;;;;;;3.33;1.92;;;;;;;;;;6216867;23;20390;-79
2023/07/14 12:49:46;;;;;;;3.05;1.75;;;;;;;;;;6216445;23;20017;-79
2023/07/14 12:52:15;;;;;;;3.05;1.60;;;;;;;;;;6217881;23;20096;-79
2023/07/14 12:54:44;;;;;;;3.65;1.88;;;;;;;;;;6218136;23;20020;-78
2023/07/14 12:57:13;;;;;;;3.05;1.70;;;;;;;;;;6222906;23;20025;-79
2023/07/14 12:59:41;;;;;;;2.97;1.90;;;;;;;;;;6218613;23;20031;-79
2023/07/14 13:02:12;;;;;;;4.68;1.98;;;;;;;;;;6219355;23;20044;-79
2023/07/14 13:04:39;;;;;;;3.58;1.95;;;;;;;;;;6216230;23;20033;-81
2023/07/14 13:07:13;;;;;;;3.20;1.80;;;;;;;;;;6214980;23;20052;-81
2023/07/14 13:09:40;;;;;;;3.67;1.85;;;;;;;;;;6216205;23;20023;-79
2023/07/14 13:12:09;;;;;;;3.15;1.77;;;;;;;;;;6216170;23;20450;-80
2023/07/14 13:14:40;;;;;;;3.87;1.80;;;;;;;;;;6215668;23;20101;-81
2023/07/14 13:17:12;;;;;;;3.17;1.83;;;;;;;;;;6215817;23;20025;-81
2023/07/14 13:19:41;;;;;;;3.83;1.80;;;;;;;;;;6215685;23;20027;-80
2023/07/14 13:22:20;;;;;;;3.60;1.83;;;;;;;;;;6215468;23;20017;-80
2023/07/14 13:24:57;;;;;;;2.90;1.92;;;;;;;;;;6216047;23;20067;-81
2023/07/14 13:27:23;;;;;;;3.67;1.73;;;;;;;;;;6214745;23;20031;-80
2023/07/14 13:29:58;;;;;;;3.30;1.75;;;;;;;;;;6216379;23;20056;-80
2023/07/14 13:32:26;;;;;;;3.78;1.77;;;;;;;;;;6219253;23;20091;-82
2023/07/14 13:34:59;;;;;;;4.22;1.90;;;;;;;;;;6217900;23;20466;-83
2023/07/14 13:37:28;;;;;;;4.43;2.10;;;;;;;;;;6218446;23;20099;-82
2023/07/14 13:39:57;;;;;;;3.53;1.83;;;;;;;;;;6220119;23;20064;-83
2023/07/14 13:42:29;;;;;;;4.47;1.80;;;;;;;;;;6219652;23;20040;-82
2023/07/14 13:44:58;;;;;;;3.75;2.25;;;;;;;;;;6216466;23;20242;-78
2023/07/14 13:47:28;;;;;;;3.70;2.00;;;;;;;;;;6217436;23;20017;-78
2023/07/14 13:49:57;;;;;;;4.40;2.10;;;;;;;;;;6218177;23;20021;-79
2023/07/14 13:52:30;;;;;;;2.90;1.88;;;;;;;;;;6218877;23;20104;-79
2023/07/14 13:54:58;;;;;;;7.75;4.72;;;;;;;;;;6219036;23;20052;-78
2023/07/14 13:57:25;;;;;;;3.90;2.50;;;;;;;;;;6219404;23;20025;-78
2023/07/14 13:59:52;;;;;;;4.00;2.20;;;;;;;;;;6216203;23;20052;-78
2023/07/14 14:02:24;;;;;;;3.35;2.05;;;;;;;;;;6213623;23;20390;-78
2023/07/14 14:04:53;;;;;;;4.53;2.20;;;;;;;;;;6213188;23;20021;-78
2023/07/14 14:07:20;;;;;;;4.32;2.10;;;;;;;;;;6213049;23;20103;-79
2023/07/14 14:09:47;;;;;;;8.13;5.50;;;;;;;;;;6213870;23;20414;-80
2023/07/14 14:12:14;;;;;;;5.63;3.15;;;;;;;;;;6213328;23;20103;-79
2023/07/14 14:14:41;;;;;;;3.97;2.30;;;;;;;;;;6212488;23;20021;-80
2023/07/14 14:17:20;;;;;;;3.58;1.90;;;;;;;;;;6210987;23;20029;-79
2023/07/14 14:19:47;;;;;;;3.87;2.10;;;;;;;;;;6213646;23;20023;-79
2023/07/14 14:22:15;;;;;;;3.47;1.90;;;;;;;;;;6213559;23;20024;-79
2023/07/14 14:24:41;;;;;;;3.90;1.95;;;;;;;;;;6212572;23;20095;-78
2023/07/14 14:27:08;;;;;;;3.50;1.80;;;;;;;;;;6212647;23;20410;-80
2023/07/14 14:29:35;;;;;;;3.65;1.80;;;;;;;;;;6213904;23;20151;-79
2023/07/14 14:32:01;;;;;;;2.85;1.67;;;;;;;;;;6214356;23;20016;-80
2023/07/14 14:34:28;;;;;;;3.22;1.90;;;;;;;;;;6215635;23;20082;-79
2023/07/14 14:36:55;;;;;;;3.30;1.90;;;;;;;;;;6214839;23;20021;-79
2023/07/14 14:39:24;;;;;;;2.65;1.75;;;;;;;;;;6213382;23;20107;-79
2023/07/14 14:41:52;;;;;;;3.40;2.08;;;;;;;;;;6214548;23;20027;-80
2023/07/14 14:44:21;;;;;;;2.40;1.45;;;;;;;;;;6214120;23;20347;-80
2023/07/14 14:46:48;;;;;;;3.63;2.00;;;;;;;;;;6213852;23;20023;-80
2023/07/14 14:49:18;;;;;;;3.70;1.73;;;;;;;;;;6212644;23;20119;-79
2023/07/14 14:51:45;;;;;;;;;;;;;;;;;;6224136;23;20025;-77
2023/07/14 14:54:13;;;;;;;3.10;1.70;;;;;;;;;;6216328;23;19989;-82
2023/07/14 14:56:43;;;;;;;2.65;1.80;;;;;;;;;;6217645;23;20017;-81
2023/07/14 14:59:17;;;;;;;3.15;1.80;;;;;;;;;;6218137;23;20028;-81